Карточка аэропорта UACC

Внимание!
Информация на этой странице в стадии наполнения.
Если вы не увидели какой-то информации, или заметили неточность - пожалуйста сообщите нам!
Спасибо!
Команда RU-STAFF
Название аэропортаАстана
Название аэропорта (англ.)Astana
Превышение1165 ft. (355.1 m.)
Координаты51°1.3319999999999', 71°28.014'
Высота перехода10000ft
Эшелон переходаFL120, QNH<733:FL130
Коды ответчика0601-0627, 7201-7217
Зона ОрВДАстана РПИ (UACN)
Данные METARUACC 200300Z 19005MPS CAVOK 21/11 Q1011 NOSIG RMK QFE727/0969
Проноз погоды (TAF)UACC 191704Z 1918/2018 17004MPS CAVOK TX30/2010Z TN14/1923Z TEMPO 1918/2003 VRB01MPS BECMG 2003/2005 22006MPS SCT040CB BKN100 TEMPO 2005/2017 24010MPS PROB40 TEMPO 2005/2017 VRB18MPS -TSRA SQ SCT030CB
NOTAMshow/hide NOTAM
AWOS   TABLE

Информация о ВПП

ВПП Длина ВПП (м.) Покрытие Курс ВПП Частота ILS
043500Асфальтобетон35109.5
223500Асфальтобетон215111.7

Диспетчерские позиции

Позывной Наименование органа УВД Частота
UACC_APPАстана Подход124.6
UACC_R_APPАстана Круг120.7
UACC_TWRАстана Вышка118.7
UACC_GNDАстана Руление119.6



Спутниковое изображение